Daikoku — JD3247 — position and weather

sailwx.info

Track history (hours):
 
Tides and Currents Weather Stations Pressure Air Temp Water Temp Dewpoint Dewpoint Depression Visibility Wind Speed Wind Dir Waves Ship Positions

Daikoku

Last reported at 2014-Nov-28 05:28 UTC. Time now 2014-Nov-28 05:51 UTC.
Position N 35°36' E 139°46'.

Length 95 m; draft 3.6 m.

Type: Cargo ship. MMSI: 431003009.

Date/timePositionNaut miles runAvg speedWind from/ knotsBaromVisibWave heightAir tempDewpointWater temp
2014-Nov-28 05:28N 35°36' E 139°46'4 2.2
2014-Nov-28 03:30N 35°33' E 139°50'5 2.3
2014-Nov-28 01:21N 35°29' E 139°51'1012.6
2014-Nov-28 00:34N 35°20' E 139°44'1111.5
2014-Nov-27 23:34N 35°09' E 139°46'4 0.1
2014-Nov-26 13:17N 35°07' E 139°43'1012.8
2014-Nov-26 12:30N 35°17' E 139°45'1011.0
2014-Nov-26 11:33N 35°26' E 139°41'0 0.1
2014-Nov-26 10:32N 35°26' E 139°41'1 0.8
2014-Nov-26 09:33N 35°27' E 139°42'3 3.4
2014-Nov-26 08:33N 35°27' E 139°46'6 6.3
2014-Nov-26 07:33N 35°31' E 139°51'2 1.0
2014-Nov-26 05:27N 35°30' E 139°49'3 2.7
2014-Nov-26 04:14N 35°29' E 139°45'2 3.6
2014-Nov-26 03:33N 35°27' E 139°46'1010.0
2014-Nov-26 02:33N 35°17' E 139°45'1010.2
2014-Nov-26 01:32N 35°06' E 139°45'240 6.3
2014-Nov-24 11:27N 34°18' E 134°59'1111.7
2014-Nov-24 10:33N 34°27' E 135°07'1212.1
2014-Nov-24 09:33N 34°36' E 135°16'4 3.6
2014-Nov-24 08:32N 34°40' E 135°14'0 0.0
2014-Nov-24 07:32N 34°40' E 135°14'0 0.0
2014-Nov-24 06:13N 34°40' E 135°14'0 0.0
2014-Nov-24 05:32N 34°40' E 135°14'0 0.0
2014-Nov-24 04:31N 34°40' E 135°14'0 0.0
2014-Nov-24 03:31N 34°40' E 135°14'0 0.0
2014-Nov-24 02:31N 34°40' E 135°14'1 0.8
2014-Nov-24 01:31N 34°39' E 135°15'1 1.4
2014-Nov-24 00:33N 34°38' E 135°16'7 6.1
2014-Nov-23 23:29N 34°39' E 135°24'1 1.6
2014-Nov-23 22:34N 34°38' E 135°23'4 1.4
2014-Nov-23 19:30N 34°35' E 135°19'0 0.0
2014-Nov-23 18:30N 34°35' E 135°19'0 0.0
2014-Nov-23 16:18N 34°35' E 135°19'0 0.0
2014-Nov-23 15:18N 34°35' E 135°19'0 0.0
2014-Nov-23 14:18N 34°35' E 135°19'0 0.0
2014-Nov-23 13:18N 34°35' E 135°19'0 0.0
2014-Nov-23 11:12N 34°35' E 135°19'0 0.0
2014-Nov-23 09:30N 34°35' E 135°19'0 0.0
2014-Nov-23 08:30N 34°35' E 135°19'0 0.0
2014-Nov-23 07:24N 34°35' E 135°19'0 0.6
2014-Nov-23 06:33N 34°35' E 135°18'1312.9
2014-Nov-23 05:33N 34°26' E 135°07'1110.9
2014-Nov-23 04:33N 34°17' E 134°59'1111.4
2014-Nov-23 03:33N 34°06' E 135°00'24210.1
2014-Nov-22 03:33N 35°09' E 139°44'1111.6
2014-Nov-22 02:33N 35°21' E 139°42'3 3.4
2014-Nov-22 01:32N 35°24' E 139°41'7 7.3
2014-Nov-22 00:33N 35°28' E 139°48'7 4.9
2014-Nov-21 23:11N 35°35' E 139°48'4 0.6
2014-Nov-21 16:25N 35°33' E 139°53'0 0.0
2014-Nov-21 14:28N 35°34' E 139°53'0 0.0
2014-Nov-21 13:07N 35°33' E 139°53'3 6.1
2014-Nov-21 12:33N 35°34' E 139°48'1 0.5
2014-Nov-21 10:23N 35°35' E 139°48'8 2.8
2014-Nov-21 07:34N 35°27' E 139°46'3 3.1
2014-Nov-21 06:28N 35°27' E 139°41'3 3.0
2014-Nov-21 05:33N 35°28' E 139°45'1 1.4
2014-Nov-21 04:33N 35°29' E 139°45'0 0.0
2014-Nov-21 03:30N 35°29' E 139°45'0 0.0
2014-Nov-21 02:33N 35°29' E 139°45'0 0.0
2014-Nov-21 01:30N 35°29' E 139°45'5 5.0
2014-Nov-21 00:33N 35°25' E 139°46'10 9.8
2014-Nov-20 23:33N 35°15' E 139°47'9 0.2
2014-Nov-19 10:15N 35°07' E 139°41'912.3
2014-Nov-19 09:33N 35°15' E 139°46'1211.7
2014-Nov-19 08:33N 35°26' E 139°46'8 2.5
2014-Nov-19 05:27N 35°34' E 139°50'8 9.0
2014-Nov-19 04:33N 35°27' E 139°44'1 0.8
2014-Nov-19 03:33N 35°26' E 139°44'10 9.6
2014-Nov-19 02:33N 35°17' E 139°45'  
Track history (hours):
 
Tides and Currents Weather Stations Pressure Air Temp Water Temp Dewpoint Dewpoint Depression Visibility Wind Speed Wind Dir Waves Ship Positions

Daikoku

Last reported at 2014-Nov-28 05:28 UTC. Time now 2014-Nov-28 05:51 UTC.
Position N 35°36' E 139°46'.

Length 95 m; draft 3.6 m.

Type: Cargo ship. MMSI: 431003009.

Date/timePositionNaut miles runAvg speedWind from/ knotsBaromVisibWave heightAir tempDewpointWater temp
2014-Nov-28 05:28N 35°36' E 139°46'4 2.2
2014-Nov-28 03:30N 35°33' E 139°50'5 2.3
2014-Nov-28 01:21N 35°29' E 139°51'1012.6
2014-Nov-28 00:34N 35°20' E 139°44'1111.5
2014-Nov-27 23:34N 35°09' E 139°46'4 0.1
2014-Nov-26 13:17N 35°07' E 139°43'1012.8
2014-Nov-26 12:30N 35°17' E 139°45'1011.0
2014-Nov-26 11:33N 35°26' E 139°41'0 0.1
2014-Nov-26 10:32N 35°26' E 139°41'1 0.8
2014-Nov-26 09:33N 35°27' E 139°42'3 3.4
2014-Nov-26 08:33N 35°27' E 139°46'6 6.3
2014-Nov-26 07:33N 35°31' E 139°51'2 1.0
2014-Nov-26 05:27N 35°30' E 139°49'3 2.7
2014-Nov-26 04:14N 35°29' E 139°45'2 3.6
2014-Nov-26 03:33N 35°27' E 139°46'1010.0
2014-Nov-26 02:33N 35°17' E 139°45'1010.2
2014-Nov-26 01:32N 35°06' E 139°45'240 6.3
2014-Nov-24 11:27N 34°18' E 134°59'1111.7
2014-Nov-24 10:33N 34°27' E 135°07'1212.1
2014-Nov-24 09:33N 34°36' E 135°16'4 3.6
2014-Nov-24 08:32N 34°40' E 135°14'0 0.0
2014-Nov-24 07:32N 34°40' E 135°14'0 0.0
2014-Nov-24 06:13N 34°40' E 135°14'0 0.0
2014-Nov-24 05:32N 34°40' E 135°14'0 0.0
2014-Nov-24 04:31N 34°40' E 135°14'0 0.0
2014-Nov-24 03:31N 34°40' E 135°14'0 0.0
2014-Nov-24 02:31N 34°40' E 135°14'1 0.8
2014-Nov-24 01:31N 34°39' E 135°15'1 1.4
2014-Nov-24 00:33N 34°38' E 135°16'7 6.1
2014-Nov-23 23:29N 34°39' E 135°24'1 1.6
2014-Nov-23 22:34N 34°38' E 135°23'4 1.4
2014-Nov-23 19:30N 34°35' E 135°19'0 0.0
2014-Nov-23 18:30N 34°35' E 135°19'0 0.0
2014-Nov-23 16:18N 34°35' E 135°19'0 0.0
2014-Nov-23 15:18N 34°35' E 135°19'0 0.0
2014-Nov-23 14:18N 34°35' E 135°19'0 0.0
2014-Nov-23 13:18N 34°35' E 135°19'0 0.0
2014-Nov-23 11:12N 34°35' E 135°19'0 0.0
2014-Nov-23 09:30N 34°35' E 135°19'0 0.0
2014-Nov-23 08:30N 34°35' E 135°19'0 0.0
2014-Nov-23 07:24N 34°35' E 135°19'0 0.6
2014-Nov-23 06:33N 34°35' E 135°18'1312.9
2014-Nov-23 05:33N 34°26' E 135°07'1110.9
2014-Nov-23 04:33N 34°17' E 134°59'1111.4
2014-Nov-23 03:33N 34°06' E 135°00'24210.1
2014-Nov-22 03:33N 35°09' E 139°44'1111.6
2014-Nov-22 02:33N 35°21' E 139°42'3 3.4
2014-Nov-22 01:32N 35°24' E 139°41'7 7.3
2014-Nov-22 00:33N 35°28' E 139°48'7 4.9
2014-Nov-21 23:11N 35°35' E 139°48'4 0.6
2014-Nov-21 16:25N 35°33' E 139°53'0 0.0
2014-Nov-21 14:28N 35°34' E 139°53'0 0.0
2014-Nov-21 13:07N 35°33' E 139°53'3 6.1
2014-Nov-21 12:33N 35°34' E 139°48'1 0.5
2014-Nov-21 10:23N 35°35' E 139°48'8 2.8
2014-Nov-21 07:34N 35°27' E 139°46'3 3.1
2014-Nov-21 06:28N 35°27' E 139°41'3 3.0
2014-Nov-21 05:33N 35°28' E 139°45'1 1.4
2014-Nov-21 04:33N 35°29' E 139°45'0 0.0
2014-Nov-21 03:30N 35°29' E 139°45'0 0.0
2014-Nov-21 02:33N 35°29' E 139°45'0 0.0
2014-Nov-21 01:30N 35°29' E 139°45'5 5.0
2014-Nov-21 00:33N 35°25' E 139°46'10 9.8
2014-Nov-20 23:33N 35°15' E 139°47'9 0.2
2014-Nov-19 10:15N 35°07' E 139°41'912.3
2014-Nov-19 09:33N 35°15' E 139°46'1211.7
2014-Nov-19 08:33N 35°26' E 139°46'8 2.5
2014-Nov-19 05:27N 35°34' E 139°50'8 9.0
2014-Nov-19 04:33N 35°27' E 139°44'1 0.8
2014-Nov-19 03:33N 35°26' E 139°44'10 9.6
2014-Nov-19 02:33N 35°17' E 139°45'  

Dump ship's entire track history